sensor_id;sensor_type;location;lat;lon;timestamp;P1;durP1;ratioP1;P2;durP2;ratioP2
52320;SDS011;38261;54.090;13.382;2022-11-20T00:00:22;1.50;;;1.30;;
52320;SDS011;38261;54.090;13.382;2022-11-20T00:01:45;1.40;;;1.30;;
52320;SDS011;38261;54.090;13.382;2022-11-20T00:03:07;2.60;;;1.17;;
52320;SDS011;38261;54.090;13.382;2022-11-20T00:04:29;3.13;;;1.40;;
52320;SDS011;38261;54.090;13.382;2022-11-20T00:05:51;1.20;;;1.10;;
52320;SDS011;38261;54.090;13.382;2022-11-20T00:07:13;1.20;;;1.10;;
52320;SDS011;38261;54.090;13.382;2022-11-20T00:08:35;1.00;;;1.00;;
52320;SDS011;38261;54.090;13.382;2022-11-20T00:09:57;1.27;;;1.17;;
52320;SDS011;38261;54.090;13.382;2022-11-20T00:11:20;1.10;;;1.00;;
52320;SDS011;38261;54.090;13.382;2022-11-20T00:12:43;1.30;;;1.13;;
52320;SDS011;38261;54.090;13.382;2022-11-20T00:14:05;1.87;;;1.10;;
52320;SDS011;38261;54.090;13.382;2022-11-20T00:15:27;1.97;;;1.20;;
52320;SDS011;38261;54.090;13.382;2022-11-20T00:16:50;1.23;;;1.13;;
52320;SDS011;38261;54.090;13.382;2022-11-20T00:18:12;1.20;;;1.10;;
52320;SDS011;38261;54.090;13.382;2022-11-20T00:19:34;1.10;;;1.00;;
52320;SDS011;38261;54.090;13.382;2022-11-20T00:22:49;1.10;;;1.00;;
52320;SDS011;38261;54.090;13.382;2022-11-20T00:24:12;2.73;;;1.20;;
52320;SDS011;38261;54.090;13.382;2022-11-20T00:25:34;1.10;;;1.00;;
52320;SDS011;38261;54.090;13.382;2022-11-20T00:26:56;1.10;;;1.00;;
52320;SDS011;38261;54.090;13.382;2022-11-20T00:28:18;2.50;;;1.60;;
52320;SDS011;38261;54.090;13.382;2022-11-20T00:29:41;1.50;;;1.30;;
52320;SDS011;38261;54.090;13.382;2022-11-20T00:31:03;1.57;;;1.40;;
52320;SDS011;38261;54.090;13.382;2022-11-20T00:32:36;1.70;;;1.60;;
52320;SDS011;38261;54.090;13.382;2022-11-20T00:33:58;2.53;;;1.43;;
52320;SDS011;38261;54.090;13.382;2022-11-20T00:35:20;2.07;;;1.40;;
52320;SDS011;38261;54.090;13.382;2022-11-20T00:36:42;3.50;;;1.77;;
52320;SDS011;38261;54.090;13.382;2022-11-20T00:38:04;1.93;;;1.33;;
52320;SDS011;38261;54.090;13.382;2022-11-20T00:39:26;2.40;;;1.57;;
52320;SDS011;38261;54.090;13.382;2022-11-20T00:40:54;2.10;;;1.40;;
52320;SDS011;38261;54.090;13.382;2022-11-20T00:42:17;1.43;;;1.33;;
52320;SDS011;38261;54.090;13.382;2022-11-20T00:43:39;1.37;;;1.20;;
52320;SDS011;38261;54.090;13.382;2022-11-20T00:45:02;2.80;;;2.20;;
52320;SDS011;38261;54.090;13.382;2022-11-20T00:46:25;2.20;;;1.50;;
52320;SDS011;38261;54.090;13.382;2022-11-20T00:47:48;2.50;;;1.77;;
52320;SDS011;38261;54.090;13.382;2022-11-20T00:49:10;5.87;;;1.50;;
52320;SDS011;38261;54.090;13.382;2022-11-20T00:50:32;1.57;;;1.30;;
52320;SDS011;38261;54.090;13.382;2022-11-20T00:51:54;1.63;;;1.50;;
52320;SDS011;38261;54.090;13.382;2022-11-20T00:53:17;1.67;;;1.40;;
52320;SDS011;38261;54.090;13.382;2022-11-20T00:54:39;1.90;;;1.60;;
52320;SDS011;38261;54.090;13.382;2022-11-20T00:56:05;1.30;;;1.20;;
52320;SDS011;38261;54.090;13.382;2022-11-20T00:57:29;2.33;;;1.40;;
52320;SDS011;38261;54.090;13.382;2022-11-20T00:58:51;1.40;;;1.27;;
52320;SDS011;38261;54.090;13.382;2022-11-20T01:00:13;1.43;;;1.33;;
52320;SDS011;38261;54.090;13.382;2022-11-20T01:01:36;1.60;;;1.50;;
52320;SDS011;38261;54.090;13.382;2022-11-20T01:02:59;1.97;;;1.57;;
52320;SDS011;38261;54.090;13.382;2022-11-20T01:04:21;2.03;;;1.50;;
52320;SDS011;38261;54.090;13.382;2022-11-20T01:05:43;1.57;;;1.47;;
52320;SDS011;38261;54.090;13.382;2022-11-20T01:07:05;2.83;;;1.67;;
52320;SDS011;38261;54.090;13.382;2022-11-20T01:08:31;1.60;;;1.47;;
52320;SDS011;38261;54.090;13.382;2022-11-20T01:09:55;1.50;;;1.40;;
52320;SDS011;38261;54.090;13.382;2022-11-20T01:11:18;1.53;;;1.43;;
52320;SDS011;38261;54.090;13.382;2022-11-20T01:12:43;1.43;;;1.20;;
52320;SDS011;38261;54.090;13.382;2022-11-20T01:14:06;1.67;;;1.20;;
52320;SDS011;38261;54.090;13.382;2022-11-20T01:15:33;1.33;;;1.23;;
52320;SDS011;38261;54.090;13.382;2022-11-20T01:16:55;2.27;;;1.73;;
52320;SDS011;38261;54.090;13.382;2022-11-20T01:18:17;1.97;;;1.60;;
52320;SDS011;38261;54.090;13.382;2022-11-20T01:19:39;1.70;;;1.60;;
52320;SDS011;38261;54.090;13.382;2022-11-20T01:21:02;2.37;;;1.73;;
52320;SDS011;38261;54.090;13.382;2022-11-20T01:22:29;1.90;;;1.43;;
52320;SDS011;38261;54.090;13.382;2022-11-20T01:23:51;1.63;;;1.10;;
52320;SDS011;38261;54.090;13.382;2022-11-20T01:25:14;2.27;;;1.60;;
52320;SDS011;38261;54.090;13.382;2022-11-20T01:26:36;1.20;;;1.00;;
52320;SDS011;38261;54.090;13.382;2022-11-20T01:28:00;1.30;;;1.10;;
52320;SDS011;38261;54.090;13.382;2022-11-20T01:29:23;1.20;;;1.10;;
52320;SDS011;38261;54.090;13.382;2022-11-20T01:30:46;0.90;;;0.90;;
52320;SDS011;38261;54.090;13.382;2022-11-20T01:32:08;1.53;;;1.40;;
52320;SDS011;38261;54.090;13.382;2022-11-20T01:33:30;2.43;;;1.80;;
52320;SDS011;38261;54.090;13.382;2022-11-20T01:34:52;3.17;;;1.60;;
52320;SDS011;38261;54.090;13.382;2022-11-20T01:36:14;2.57;;;1.70;;
52320;SDS011;38261;54.090;13.382;2022-11-20T01:37:37;1.63;;;1.53;;
52320;SDS011;38261;54.090;13.382;2022-11-20T01:39:00;1.60;;;1.50;;
52320;SDS011;38261;54.090;13.382;2022-11-20T01:40:25;2.60;;;1.90;;
52320;SDS011;38261;54.090;13.382;2022-11-20T01:41:48;3.53;;;1.60;;
52320;SDS011;38261;54.090;13.382;2022-11-20T01:43:31;2.27;;;2.00;;
52320;SDS011;38261;54.090;13.382;2022-11-20T01:46:19;1.67;;;1.40;;
52320;SDS011;38261;54.090;13.382;2022-11-20T01:47:43;1.57;;;1.43;;
52320;SDS011;38261;54.090;13.382;2022-11-20T01:49:09;1.47;;;1.30;;
52320;SDS011;38261;54.090;13.382;2022-11-20T01:50:38;2.60;;;2.07;;
52320;SDS011;38261;54.090;13.382;2022-11-20T01:52:03;2.67;;;2.10;;
52320;SDS011;38261;54.090;13.382;2022-11-20T01:53:30;2.70;;;1.90;;
52320;SDS011;38261;54.090;13.382;2022-11-20T01:54:56;2.17;;;1.97;;
52320;SDS011;38261;54.090;13.382;2022-11-20T01:56:23;1.87;;;1.77;;
52320;SDS011;38261;54.090;13.382;2022-11-20T01:57:46;2.07;;;1.87;;
52320;SDS011;38261;54.090;13.382;2022-11-20T01:59:10;2.30;;;1.80;;
52320;SDS011;38261;54.090;13.382;2022-11-20T02:00:34;3.07;;;1.97;;
52320;SDS011;38261;54.090;13.382;2022-11-20T02:01:57;1.60;;;1.50;;
52320;SDS011;38261;54.090;13.382;2022-11-20T02:03:20;2.20;;;1.97;;
52320;SDS011;38261;54.090;13.382;2022-11-20T02:04:42;2.13;;;1.93;;
52320;SDS011;38261;54.090;13.382;2022-11-20T02:07:30;2.10;;;1.87;;
52320;SDS011;38261;54.090;13.382;2022-11-20T02:08:53;2.63;;;2.00;;
52320;SDS011;38261;54.090;13.382;2022-11-20T02:10:16;1.77;;;1.50;;
52320;SDS011;38261;54.090;13.382;2022-11-20T02:11:38;2.30;;;2.10;;
52320;SDS011;38261;54.090;13.382;2022-11-20T02:13:00;2.43;;;2.10;;
52320;SDS011;38261;54.090;13.382;2022-11-20T02:14:41;2.57;;;2.03;;
52320;SDS011;38261;54.090;13.382;2022-11-20T02:16:03;2.07;;;1.40;;
52320;SDS011;38261;54.090;13.382;2022-11-20T02:17:26;1.80;;;1.60;;
52320;SDS011;38261;54.090;13.382;2022-11-20T02:18:49;2.20;;;2.00;;
52320;SDS011;38261;54.090;13.382;2022-11-20T02:20:12;2.30;;;1.60;;
52320;SDS011;38261;54.090;13.382;2022-11-20T02:21:37;2.70;;;1.90;;
52320;SDS011;38261;54.090;13.382;2022-11-20T02:23:24;2.00;;;1.70;;
52320;SDS011;38261;54.090;13.382;2022-11-20T02:24:58;2.30;;;2.07;;
52320;SDS011;38261;54.090;13.382;2022-11-20T02:26:23;2.37;;;2.10;;
52320;SDS011;38261;54.090;13.382;2022-11-20T02:27:48;2.13;;;1.60;;
52320;SDS011;38261;54.090;13.382;2022-11-20T02:29:12;2.40;;;2.10;;
52320;SDS011;38261;54.090;13.382;2022-11-20T02:30:37;2.73;;;1.90;;
52320;SDS011;38261;54.090;13.382;2022-11-20T02:31:59;2.50;;;1.90;;
52320;SDS011;38261;54.090;13.382;2022-11-20T02:33:23;2.33;;;2.13;;
52320;SDS011;38261;54.090;13.382;2022-11-20T02:34:45;2.47;;;2.10;;
52320;SDS011;38261;54.090;13.382;2022-11-20T02:36:08;2.17;;;1.97;;
52320;SDS011;38261;54.090;13.382;2022-11-20T02:37:37;3.07;;;2.00;;
52320;SDS011;38261;54.090;13.382;2022-11-20T02:39:02;2.13;;;1.93;;
52320;SDS011;38261;54.090;13.382;2022-11-20T02:40:25;1.67;;;1.53;;
52320;SDS011;38261;54.090;13.382;2022-11-20T02:41:47;1.80;;;1.70;;
52320;SDS011;38261;54.090;13.382;2022-11-20T02:43:09;3.10;;;2.00;;
52320;SDS011;38261;54.090;13.382;2022-11-20T02:44:32;2.43;;;2.17;;
52320;SDS011;38261;54.090;13.382;2022-11-20T02:45:54;2.53;;;2.10;;
52320;SDS011;38261;54.090;13.382;2022-11-20T02:47:16;2.27;;;1.97;;
52320;SDS011;38261;54.090;13.382;2022-11-20T02:48:38;2.80;;;2.00;;
52320;SDS011;38261;54.090;13.382;2022-11-20T02:50:00;3.10;;;2.03;;
52320;SDS011;38261;54.090;13.382;2022-11-20T02:51:22;2.63;;;2.13;;
52320;SDS011;38261;54.090;13.382;2022-11-20T02:52:45;4.67;;;2.80;;
52320;SDS011;38261;54.090;13.382;2022-11-20T02:54:07;3.23;;;2.27;;
52320;SDS011;38261;54.090;13.382;2022-11-20T02:55:29;2.47;;;2.13;;
52320;SDS011;38261;54.090;13.382;2022-11-20T02:56:51;3.20;;;2.60;;
52320;SDS011;38261;54.090;13.382;2022-11-20T02:58:13;2.23;;;1.80;;
52320;SDS011;38261;54.090;13.382;2022-11-20T02:59:36;3.27;;;2.07;;
52320;SDS011;38261;54.090;13.382;2022-11-20T03:00:58;3.17;;;2.30;;
52320;SDS011;38261;54.090;13.382;2022-11-20T03:02:20;2.17;;;1.97;;
52320;SDS011;38261;54.090;13.382;2022-11-20T03:03:42;1.70;;;1.60;;
52320;SDS011;38261;54.090;13.382;2022-11-20T03:05:04;2.60;;;2.27;;
52320;SDS011;38261;54.090;13.382;2022-11-20T03:06:26;1.90;;;1.80;;
52320;SDS011;38261;54.090;13.382;2022-11-20T03:07:48;2.30;;;2.10;;
52320;SDS011;38261;54.090;13.382;2022-11-20T03:09:10;2.40;;;2.10;;
52320;SDS011;38261;54.090;13.382;2022-11-20T03:10:33;2.30;;;2.00;;
52320;SDS011;38261;54.090;13.382;2022-11-20T03:11:55;2.07;;;1.87;;
52320;SDS011;38261;54.090;13.382;2022-11-20T03:13:17;2.83;;;2.00;;
52320;SDS011;38261;54.090;13.382;2022-11-20T03:14:39;4.97;;;2.40;;
52320;SDS011;38261;54.090;13.382;2022-11-20T03:17:54;2.70;;;2.17;;
52320;SDS011;38261;54.090;13.382;2022-11-20T03:19:17;2.37;;;2.00;;
52320;SDS011;38261;54.090;13.382;2022-11-20T03:20:39;2.23;;;2.03;;
52320;SDS011;38261;54.090;13.382;2022-11-20T03:22:01;2.60;;;2.20;;
52320;SDS011;38261;54.090;13.382;2022-11-20T03:23:24;1.70;;;1.60;;
52320;SDS011;38261;54.090;13.382;2022-11-20T03:24:47;2.37;;;1.50;;
52320;SDS011;38261;54.090;13.382;2022-11-20T03:26:16;3.57;;;2.13;;
52320;SDS011;38261;54.090;13.382;2022-11-20T03:27:40;2.00;;;1.70;;
52320;SDS011;38261;54.090;13.382;2022-11-20T03:29:03;2.03;;;1.70;;
52320;SDS011;38261;54.090;13.382;2022-11-20T03:30:26;6.27;;;2.67;;
52320;SDS011;38261;54.090;13.382;2022-11-20T03:31:51;3.13;;;2.30;;
52320;SDS011;38261;54.090;13.382;2022-11-20T03:33:13;1.87;;;1.73;;
52320;SDS011;38261;54.090;13.382;2022-11-20T03:34:35;2.30;;;2.03;;
52320;SDS011;38261;54.090;13.382;2022-11-20T03:36:01;2.93;;;2.37;;
52320;SDS011;38261;54.090;13.382;2022-11-20T03:37:24;3.00;;;2.20;;
52320;SDS011;38261;54.090;13.382;2022-11-20T03:38:46;4.40;;;2.70;;
52320;SDS011;38261;54.090;13.382;2022-11-20T03:40:09;3.10;;;2.10;;
52320;SDS011;38261;54.090;13.382;2022-11-20T03:41:35;2.33;;;2.13;;
52320;SDS011;38261;54.090;13.382;2022-11-20T03:42:58;2.43;;;1.90;;
52320;SDS011;38261;54.090;13.382;2022-11-20T03:44:20;2.07;;;1.87;;
52320;SDS011;38261;54.090;13.382;2022-11-20T03:45:43;2.50;;;2.30;;
52320;SDS011;38261;54.090;13.382;2022-11-20T03:47:05;5.30;;;2.30;;
52320;SDS011;38261;54.090;13.382;2022-11-20T03:48:27;4.93;;;2.50;;
52320;SDS011;38261;54.090;13.382;2022-11-20T03:49:49;3.33;;;2.40;;
52320;SDS011;38261;54.090;13.382;2022-11-20T03:51:16;3.80;;;2.90;;
52320;SDS011;38261;54.090;13.382;2022-11-20T03:52:39;2.23;;;1.87;;
52320;SDS011;38261;54.090;13.382;2022-11-20T03:54:03;8.60;;;2.97;;
52320;SDS011;38261;54.090;13.382;2022-11-20T03:55:27;3.10;;;2.20;;
52320;SDS011;38261;54.090;13.382;2022-11-20T03:56:49;3.50;;;2.73;;
52320;SDS011;38261;54.090;13.382;2022-11-20T03:58:11;3.67;;;2.60;;
52320;SDS011;38261;54.090;13.382;2022-11-20T03:59:34;4.07;;;2.80;;
52320;SDS011;38261;54.090;13.382;2022-11-20T04:00:56;6.40;;;2.70;;
52320;SDS011;38261;54.090;13.382;2022-11-20T04:02:18;3.67;;;2.13;;
52320;SDS011;38261;54.090;13.382;2022-11-20T04:03:41;3.43;;;2.47;;
52320;SDS011;38261;54.090;13.382;2022-11-20T04:05:04;3.70;;;2.50;;
52320;SDS011;38261;54.090;13.382;2022-11-20T04:07:58;3.93;;;2.43;;
52320;SDS011;38261;54.090;13.382;2022-11-20T04:09:21;3.93;;;2.33;;
52320;SDS011;38261;54.090;13.382;2022-11-20T04:10:43;2.63;;;2.00;;
52320;SDS011;38261;54.090;13.382;2022-11-20T04:12:05;2.57;;;2.10;;
52320;SDS011;38261;54.090;13.382;2022-11-20T04:13:27;2.50;;;2.17;;
52320;SDS011;38261;54.090;13.382;2022-11-20T04:14:50;1.80;;;1.70;;
52320;SDS011;38261;54.090;13.382;2022-11-20T04:16:12;3.30;;;2.00;;
52320;SDS011;38261;54.090;13.382;2022-11-20T04:17:35;2.43;;;1.93;;
52320;SDS011;38261;54.090;13.382;2022-11-20T04:18:57;2.83;;;2.10;;
52320;SDS011;38261;54.090;13.382;2022-11-20T04:20:21;3.90;;;2.50;;
52320;SDS011;38261;54.090;13.382;2022-11-20T04:21:43;3.07;;;2.30;;
52320;SDS011;38261;54.090;13.382;2022-11-20T04:23:06;6.77;;;2.60;;
52320;SDS011;38261;54.090;13.382;2022-11-20T04:24:28;2.63;;;2.33;;
52320;SDS011;38261;54.090;13.382;2022-11-20T04:25:50;4.50;;;2.23;;
52320;SDS011;38261;54.090;13.382;2022-11-20T04:27:12;4.17;;;2.10;;
52320;SDS011;38261;54.090;13.382;2022-11-20T04:28:34;2.90;;;2.30;;
52320;SDS011;38261;54.090;13.382;2022-11-20T04:29:57;3.47;;;2.37;;
52320;SDS011;38261;54.090;13.382;2022-11-20T04:31:20;3.33;;;2.70;;
52320;SDS011;38261;54.090;13.382;2022-11-20T04:32:44;5.20;;;3.33;;
52320;SDS011;38261;54.090;13.382;2022-11-20T04:34:06;4.63;;;2.90;;
52320;SDS011;38261;54.090;13.382;2022-11-20T04:35:29;4.47;;;3.00;;
52320;SDS011;38261;54.090;13.382;2022-11-20T04:36:51;4.67;;;3.20;;
52320;SDS011;38261;54.090;13.382;2022-11-20T04:38:13;3.33;;;2.90;;
52320;SDS011;38261;54.090;13.382;2022-11-20T04:39:35;3.07;;;2.30;;
52320;SDS011;38261;54.090;13.382;2022-11-20T04:40:58;5.30;;;2.83;;
52320;SDS011;38261;54.090;13.382;2022-11-20T04:42:21;3.43;;;2.80;;
52320;SDS011;38261;54.090;13.382;2022-11-20T04:43:54;3.97;;;2.23;;
52320;SDS011;38261;54.090;13.382;2022-11-20T04:45:26;3.80;;;2.60;;
52320;SDS011;38261;54.090;13.382;2022-11-20T04:46:48;3.50;;;2.73;;
52320;SDS011;38261;54.090;13.382;2022-11-20T04:48:10;5.93;;;3.40;;
52320;SDS011;38261;54.090;13.382;2022-11-20T04:49:32;4.67;;;2.50;;
52320;SDS011;38261;54.090;13.382;2022-11-20T04:50:55;4.17;;;2.77;;
52320;SDS011;38261;54.090;13.382;2022-11-20T04:52:18;4.00;;;3.00;;
52320;SDS011;38261;54.090;13.382;2022-11-20T04:53:40;2.80;;;2.30;;
52320;SDS011;38261;54.090;13.382;2022-11-20T04:55:02;3.33;;;2.53;;
52320;SDS011;38261;54.090;13.382;2022-11-20T04:56:25;4.33;;;2.80;;
52320;SDS011;38261;54.090;13.382;2022-11-20T04:57:49;3.43;;;2.50;;
52320;SDS011;38261;54.090;13.382;2022-11-20T04:59:13;3.63;;;2.73;;
52320;SDS011;38261;54.090;13.382;2022-11-20T05:00:35;5.10;;;2.63;;
52320;SDS011;38261;54.090;13.382;2022-11-20T05:01:57;3.70;;;2.30;;
52320;SDS011;38261;54.090;13.382;2022-11-20T05:03:19;3.80;;;2.87;;
52320;SDS011;38261;54.090;13.382;2022-11-20T05:04:41;4.10;;;2.70;;
52320;SDS011;38261;54.090;13.382;2022-11-20T05:06:04;4.57;;;2.53;;
52320;SDS011;38261;54.090;13.382;2022-11-20T05:07:27;4.07;;;2.70;;
52320;SDS011;38261;54.090;13.382;2022-11-20T05:08:49;3.53;;;2.70;;
52320;SDS011;38261;54.090;13.382;2022-11-20T05:10:12;3.63;;;2.50;;
52320;SDS011;38261;54.090;13.382;2022-11-20T05:11:34;3.40;;;2.37;;
52320;SDS011;38261;54.090;13.382;2022-11-20T05:12:56;4.50;;;3.00;;
52320;SDS011;38261;54.090;13.382;2022-11-20T05:14:19;2.83;;;2.20;;
52320;SDS011;38261;54.090;13.382;2022-11-20T05:15:41;4.13;;;2.30;;
52320;SDS011;38261;54.090;13.382;2022-11-20T05:17:03;3.33;;;2.33;;
52320;SDS011;38261;54.090;13.382;2022-11-20T05:18:25;2.27;;;1.70;;
52320;SDS011;38261;54.090;13.382;2022-11-20T05:19:47;3.30;;;2.20;;
52320;SDS011;38261;54.090;13.382;2022-11-20T05:21:14;3.87;;;2.20;;
52320;SDS011;38261;54.090;13.382;2022-11-20T05:22:36;6.13;;;2.37;;
52320;SDS011;38261;54.090;13.382;2022-11-20T05:23:58;4.90;;;2.43;;
52320;SDS011;38261;54.090;13.382;2022-11-20T05:25:20;2.80;;;1.93;;
52320;SDS011;38261;54.090;13.382;2022-11-20T05:26:42;5.43;;;2.07;;
52320;SDS011;38261;54.090;13.382;2022-11-20T05:28:04;4.20;;;3.23;;
52320;SDS011;38261;54.090;13.382;2022-11-20T05:29:26;5.10;;;2.00;;
52320;SDS011;38261;54.090;13.382;2022-11-20T05:30:48;3.90;;;2.70;;
52320;SDS011;38261;54.090;13.382;2022-11-20T05:32:10;3.17;;;2.00;;
52320;SDS011;38261;54.090;13.382;2022-11-20T05:33:33;3.17;;;2.20;;
52320;SDS011;38261;54.090;13.382;2022-11-20T05:34:56;4.13;;;2.20;;
52320;SDS011;38261;54.090;13.382;2022-11-20T05:36:18;4.40;;;2.40;;
52320;SDS011;38261;54.090;13.382;2022-11-20T05:37:41;3.27;;;2.00;;
52320;SDS011;38261;54.090;13.382;2022-11-20T05:39:03;3.00;;;2.33;;
52320;SDS011;38261;54.090;13.382;2022-11-20T05:40:25;2.43;;;2.10;;
52320;SDS011;38261;54.090;13.382;2022-11-20T05:41:47;4.87;;;2.77;;
52320;SDS011;38261;54.090;13.382;2022-11-20T05:43:31;4.53;;;2.83;;
52320;SDS011;38261;54.090;13.382;2022-11-20T05:44:55;3.50;;;2.47;;
52320;SDS011;38261;54.090;13.382;2022-11-20T05:46:21;3.70;;;3.20;;
52320;SDS011;38261;54.090;13.382;2022-11-20T05:47:49;4.70;;;2.50;;
52320;SDS011;38261;54.090;13.382;2022-11-20T05:49:11;6.97;;;2.90;;
52320;SDS011;38261;54.090;13.382;2022-11-20T05:50:33;7.60;;;3.30;;
52320;SDS011;38261;54.090;13.382;2022-11-20T05:51:55;3.10;;;2.50;;
52320;SDS011;38261;54.090;13.382;2022-11-20T05:53:17;3.30;;;2.80;;
52320;SDS011;38261;54.090;13.382;2022-11-20T05:54:40;6.30;;;3.23;;
52320;SDS011;38261;54.090;13.382;2022-11-20T05:56:03;4.20;;;3.00;;
52320;SDS011;38261;54.090;13.382;2022-11-20T05:57:31;4.70;;;3.03;;
52320;SDS011;38261;54.090;13.382;2022-11-20T05:58:53;5.27;;;2.90;;
52320;SDS011;38261;54.090;13.382;2022-11-20T06:00:15;5.93;;;2.50;;
52320;SDS011;38261;54.090;13.382;2022-11-20T06:01:38;4.73;;;3.20;;
52320;SDS011;38261;54.090;13.382;2022-11-20T06:03:00;6.03;;;2.80;;
52320;SDS011;38261;54.090;13.382;2022-11-20T06:04:22;4.30;;;2.80;;
52320;SDS011;38261;54.090;13.382;2022-11-20T06:05:44;5.00;;;2.30;;
52320;SDS011;38261;54.090;13.382;2022-11-20T06:07:06;4.00;;;2.80;;
52320;SDS011;38261;54.090;13.382;2022-11-20T06:08:29;5.47;;;2.80;;
52320;SDS011;38261;54.090;13.382;2022-11-20T06:09:51;2.70;;;2.30;;
52320;SDS011;38261;54.090;13.382;2022-11-20T06:11:14;4.10;;;2.53;;
52320;SDS011;38261;54.090;13.382;2022-11-20T06:12:36;3.50;;;2.43;;
52320;SDS011;38261;54.090;13.382;2022-11-20T06:13:58;3.10;;;2.37;;
52320;SDS011;38261;54.090;13.382;2022-11-20T06:15:20;4.40;;;2.50;;
52320;SDS011;38261;54.090;13.382;2022-11-20T06:16:43;2.97;;;2.20;;
52320;SDS011;38261;54.090;13.382;2022-11-20T06:18:05;3.20;;;2.57;;
52320;SDS011;38261;54.090;13.382;2022-11-20T06:19:27;3.40;;;2.30;;
52320;SDS011;38261;54.090;13.382;2022-11-20T06:20:49;4.57;;;2.60;;
52320;SDS011;38261;54.090;13.382;2022-11-20T06:22:11;3.90;;;2.73;;
52320;SDS011;38261;54.090;13.382;2022-11-20T06:23:33;4.50;;;2.47;;
52320;SDS011;38261;54.090;13.382;2022-11-20T06:24:56;2.53;;;2.30;;
52320;SDS011;38261;54.090;13.382;2022-11-20T06:26:19;2.50;;;2.30;;
52320;SDS011;38261;54.090;13.382;2022-11-20T06:27:46;4.13;;;2.57;;
52320;SDS011;38261;54.090;13.382;2022-11-20T06:29:08;2.70;;;2.07;;
52320;SDS011;38261;54.090;13.382;2022-11-20T06:30:30;5.60;;;2.57;;
52320;SDS011;38261;54.090;13.382;2022-11-20T06:31:53;3.97;;;2.57;;
52320;SDS011;38261;54.090;13.382;2022-11-20T06:33:15;4.93;;;2.80;;
52320;SDS011;38261;54.090;13.382;2022-11-20T06:34:37;3.13;;;2.43;;
52320;SDS011;38261;54.090;13.382;2022-11-20T06:35:59;3.37;;;2.40;;
52320;SDS011;38261;54.090;13.382;2022-11-20T06:37:30;2.90;;;2.17;;
52320;SDS011;38261;54.090;13.382;2022-11-20T06:38:52;3.50;;;2.30;;
52320;SDS011;38261;54.090;13.382;2022-11-20T06:40:15;3.90;;;2.00;;
52320;SDS011;38261;54.090;13.382;2022-11-20T06:41:37;2.27;;;1.70;;
52320;SDS011;38261;54.090;13.382;2022-11-20T06:42:59;2.63;;;2.43;;
52320;SDS011;38261;54.090;13.382;2022-11-20T06:44:21;3.90;;;2.73;;
52320;SDS011;38261;54.090;13.382;2022-11-20T06:45:43;3.00;;;2.40;;
52320;SDS011;38261;54.090;13.382;2022-11-20T06:47:05;3.43;;;2.10;;
52320;SDS011;38261;54.090;13.382;2022-11-20T06:48:27;3.33;;;2.30;;
52320;SDS011;38261;54.090;13.382;2022-11-20T06:49:50;4.13;;;2.40;;
52320;SDS011;38261;54.090;13.382;2022-11-20T06:51:12;3.73;;;2.13;;
52320;SDS011;38261;54.090;13.382;2022-11-20T06:52:34;3.93;;;2.40;;
52320;SDS011;38261;54.090;13.382;2022-11-20T06:54:03;3.60;;;2.40;;
52320;SDS011;38261;54.090;13.382;2022-11-20T06:55:26;3.90;;;2.50;;
52320;SDS011;38261;54.090;13.382;2022-11-20T06:56:48;4.63;;;4.23;;
52320;SDS011;38261;54.090;13.382;2022-11-20T06:58:10;4.10;;;2.30;;
52320;SDS011;38261;54.090;13.382;2022-11-20T06:59:33;3.10;;;2.10;;
52320;SDS011;38261;54.090;13.382;2022-11-20T07:00:59;5.37;;;2.97;;
52320;SDS011;38261;54.090;13.382;2022-11-20T07:02:28;4.60;;;2.93;;
52320;SDS011;38261;54.090;13.382;2022-11-20T07:03:51;5.60;;;2.60;;
52320;SDS011;38261;54.090;13.382;2022-11-20T07:05:15;3.40;;;2.10;;
52320;SDS011;38261;54.090;13.382;2022-11-20T07:06:38;3.67;;;2.70;;
52320;SDS011;38261;54.090;13.382;2022-11-20T07:08:00;4.03;;;2.80;;
52320;SDS011;38261;54.090;13.382;2022-11-20T07:09:22;5.20;;;2.73;;
52320;SDS011;38261;54.090;13.382;2022-11-20T07:10:45;6.20;;;2.87;;
52320;SDS011;38261;54.090;13.382;2022-11-20T07:12:07;3.67;;;2.30;;
52320;SDS011;38261;54.090;13.382;2022-11-20T07:13:30;5.20;;;3.10;;
52320;SDS011;38261;54.090;13.382;2022-11-20T07:14:52;3.43;;;2.77;;
52320;SDS011;38261;54.090;13.382;2022-11-20T07:16:14;4.10;;;2.07;;
52320;SDS011;38261;54.090;13.382;2022-11-20T07:17:37;5.20;;;3.37;;
52320;SDS011;38261;54.090;13.382;2022-11-20T07:18:59;4.80;;;3.37;;
52320;SDS011;38261;54.090;13.382;2022-11-20T07:20:21;6.07;;;3.50;;
52320;SDS011;38261;54.090;13.382;2022-11-20T07:21:43;6.60;;;4.03;;
52320;SDS011;38261;54.090;13.382;2022-11-20T07:23:05;10.23;;;4.07;;
52320;SDS011;38261;54.090;13.382;2022-11-20T07:24:27;7.50;;;4.70;;
52320;SDS011;38261;54.090;13.382;2022-11-20T07:25:49;9.30;;;5.43;;
52320;SDS011;38261;54.090;13.382;2022-11-20T07:27:11;8.40;;;5.00;;
52320;SDS011;38261;54.090;13.382;2022-11-20T07:28:33;7.97;;;4.57;;
52320;SDS011;38261;54.090;13.382;2022-11-20T07:29:56;7.33;;;4.00;;
52320;SDS011;38261;54.090;13.382;2022-11-20T07:31:18;4.93;;;3.07;;
52320;SDS011;38261;54.090;13.382;2022-11-20T07:32:41;4.50;;;3.37;;
52320;SDS011;38261;54.090;13.382;2022-11-20T07:34:03;5.10;;;3.50;;
52320;SDS011;38261;54.090;13.382;2022-11-20T07:35:25;5.20;;;3.17;;
52320;SDS011;38261;54.090;13.382;2022-11-20T07:36:47;5.70;;;3.50;;
52320;SDS011;38261;54.090;13.382;2022-11-20T07:38:09;5.40;;;3.40;;
52320;SDS011;38261;54.090;13.382;2022-11-20T07:39:31;9.90;;;4.47;;
52320;SDS011;38261;54.090;13.382;2022-11-20T07:40:54;5.90;;;3.80;;
52320;SDS011;38261;54.090;13.382;2022-11-20T07:42:17;6.30;;;3.57;;
52320;SDS011;38261;54.090;13.382;2022-11-20T07:43:39;6.50;;;4.40;;
52320;SDS011;38261;54.090;13.382;2022-11-20T07:45:02;5.90;;;3.30;;
52320;SDS011;38261;54.090;13.382;2022-11-20T07:46:24;5.33;;;3.70;;
52320;SDS011;38261;54.090;13.382;2022-11-20T07:47:46;5.83;;;3.77;;
52320;SDS011;38261;54.090;13.382;2022-11-20T07:49:09;5.60;;;3.37;;
52320;SDS011;38261;54.090;13.382;2022-11-20T07:50:31;9.23;;;3.70;;
52320;SDS011;38261;54.090;13.382;2022-11-20T07:51:53;5.93;;;3.73;;
52320;SDS011;38261;54.090;13.382;2022-11-20T07:53:18;5.90;;;3.70;;
52320;SDS011;38261;54.090;13.382;2022-11-20T07:54:43;5.80;;;3.87;;
52320;SDS011;38261;54.090;13.382;2022-11-20T07:56:05;4.87;;;3.10;;
52320;SDS011;38261;54.090;13.382;2022-11-20T07:57:27;7.67;;;4.17;;
52320;SDS011;38261;54.090;13.382;2022-11-20T07:58:49;6.10;;;3.60;;
52320;SDS011;38261;54.090;13.382;2022-11-20T08:00:11;5.40;;;3.53;;
52320;SDS011;38261;54.090;13.382;2022-11-20T08:01:34;5.20;;;3.80;;
52320;SDS011;38261;54.090;13.382;2022-11-20T08:02:56;4.67;;;3.17;;
52320;SDS011;38261;54.090;13.382;2022-11-20T08:04:18;7.23;;;3.73;;
52320;SDS011;38261;54.090;13.382;2022-11-20T08:05:41;5.03;;;2.97;;
52320;SDS011;38261;54.090;13.382;2022-11-20T08:07:03;5.97;;;3.70;;
52320;SDS011;38261;54.090;13.382;2022-11-20T08:08:25;4.90;;;3.20;;
52320;SDS011;38261;54.090;13.382;2022-11-20T08:09:47;6.97;;;4.30;;
52320;SDS011;38261;54.090;13.382;2022-11-20T08:11:09;6.53;;;3.80;;
52320;SDS011;38261;54.090;13.382;2022-11-20T08:12:50;6.10;;;3.70;;
52320;SDS011;38261;54.090;13.382;2022-11-20T08:14:33;5.57;;;3.50;;
52320;SDS011;38261;54.090;13.382;2022-11-20T08:15:55;6.73;;;3.57;;
52320;SDS011;38261;54.090;13.382;2022-11-20T08:17:17;6.13;;;3.80;;
52320;SDS011;38261;54.090;13.382;2022-11-20T08:18:39;5.23;;;3.40;;
52320;SDS011;38261;54.090;13.382;2022-11-20T08:20:01;4.13;;;3.43;;
52320;SDS011;38261;54.090;13.382;2022-11-20T08:21:23;6.70;;;3.80;;